sensor_id;sensor_type;location;lat;lon;timestamp;temperature;humidity
78461;SHT31;67755;51.986;5.696;2023-02-15T00:01:45;9.1;61.5
78461;SHT31;67755;51.986;5.696;2023-02-15T00:04:17;9.1;61.3
78461;SHT31;67755;51.986;5.696;2023-02-15T00:06:47;9.1;61.5
78461;SHT31;67755;51.986;5.696;2023-02-15T00:09:18;9.1;61.8
78461;SHT31;67755;51.986;5.696;2023-02-15T00:11:48;9.1;61.9
78461;SHT31;67755;51.986;5.696;2023-02-15T00:14:20;9.1;61.0
78461;SHT31;67755;51.986;5.696;2023-02-15T00:16:52;9.1;61.1
78461;SHT31;67755;51.986;5.696;2023-02-15T00:19:22;9.0;61.4
78461;SHT31;67755;51.986;5.696;2023-02-15T00:21:52;9.0;61.2
78461;SHT31;67755;51.986;5.696;2023-02-15T00:24:21;9.0;61.4
78461;SHT31;67755;51.986;5.696;2023-02-15T00:26:53;9.0;61.1
78461;SHT31;67755;51.986;5.696;2023-02-15T00:29:22;9.0;61.4
78461;SHT31;67755;51.986;5.696;2023-02-15T00:31:52;8.9;61.1
78461;SHT31;67755;51.986;5.696;2023-02-15T00:34:24;8.9;61.2
78461;SHT31;67755;51.986;5.696;2023-02-15T00:36:54;8.9;61.2
78461;SHT31;67755;51.986;5.696;2023-02-15T00:39:24;8.9;62.1
78461;SHT31;67755;51.986;5.696;2023-02-15T00:41:54;8.9;61.7
78461;SHT31;67755;51.986;5.696;2023-02-15T00:44:26;8.9;61.5
78461;SHT31;67755;51.986;5.696;2023-02-15T00:46:55;8.9;61.9
78461;SHT31;67755;51.986;5.696;2023-02-15T00:49:25;8.8;61.2
78461;SHT31;67755;51.986;5.696;2023-02-15T00:51:54;8.8;61.8
78461;SHT31;67755;51.986;5.696;2023-02-15T00:54:23;8.8;61.3
78461;SHT31;67755;51.986;5.696;2023-02-15T00:56:53;8.8;61.3
78461;SHT31;67755;51.986;5.696;2023-02-15T00:59:22;8.8;61.1
78461;SHT31;67755;51.986;5.696;2023-02-15T01:01:52;8.8;61.3
78461;SHT31;67755;51.986;5.696;2023-02-15T01:04:21;8.8;61.2
78461;SHT31;67755;51.986;5.696;2023-02-15T01:06:51;8.7;60.9
78461;SHT31;67755;51.986;5.696;2023-02-15T01:09:20;8.7;60.8
78461;SHT31;67755;51.986;5.696;2023-02-15T01:11:52;8.7;60.8
78461;SHT31;67755;51.986;5.696;2023-02-15T01:14:21;8.7;61.1
78461;SHT31;67755;51.986;5.696;2023-02-15T01:16:51;8.7;61.0
78461;SHT31;67755;51.986;5.696;2023-02-15T01:19:20;8.7;61.0
78461;SHT31;67755;51.986;5.696;2023-02-15T01:21:50;8.7;60.8
78461;SHT31;67755;51.986;5.696;2023-02-15T01:24:19;8.7;61.0
78461;SHT31;67755;51.986;5.696;2023-02-15T01:26:49;8.7;61.0
78461;SHT31;67755;51.986;5.696;2023-02-15T01:29:18;8.6;61.0
78461;SHT31;67755;51.986;5.696;2023-02-15T01:31:48;8.6;60.8
78461;SHT31;67755;51.986;5.696;2023-02-15T01:34:17;8.6;60.6
78461;SHT31;67755;51.986;5.696;2023-02-15T01:36:47;8.6;60.7
78461;SHT31;67755;51.986;5.696;2023-02-15T01:39:16;8.6;60.3
78461;SHT31;67755;51.986;5.696;2023-02-15T01:41:46;8.6;60.4
78461;SHT31;67755;51.986;5.696;2023-02-15T01:45:03;8.6;60.3
78461;SHT31;67755;51.986;5.696;2023-02-15T01:47:37;8.6;60.5
78461;SHT31;67755;51.986;5.696;2023-02-15T01:50:12;8.6;60.6
78461;SHT31;67755;51.986;5.696;2023-02-15T01:52:48;8.6;60.9
78461;SHT31;67755;51.986;5.696;2023-02-15T01:55:20;8.6;60.8
78461;SHT31;67755;51.986;5.696;2023-02-15T01:57:51;8.5;60.5
78461;SHT31;67755;51.986;5.696;2023-02-15T02:00:21;8.5;60.7
78461;SHT31;67755;51.986;5.696;2023-02-15T02:02:55;8.5;60.3
78461;SHT31;67755;51.986;5.696;2023-02-15T02:05:25;8.5;60.3
78461;SHT31;67755;51.986;5.696;2023-02-15T02:07:58;8.5;60.1
78461;SHT31;67755;51.986;5.696;2023-02-15T02:10:29;8.5;59.8
78461;SHT31;67755;51.986;5.696;2023-02-15T02:13:03;8.5;60.0
78461;SHT31;67755;51.986;5.696;2023-02-15T02:15:43;8.5;59.9
78461;SHT31;67755;51.986;5.696;2023-02-15T02:18:30;8.5;60.0
78461;SHT31;67755;51.986;5.696;2023-02-15T09:00:21;10.6;51.9
78461;SHT31;67755;51.986;5.696;2023-02-15T09:02:52;10.3;53.1
78461;SHT31;67755;51.986;5.696;2023-02-15T09:05:22;10.2;53.6
78461;SHT31;67755;51.986;5.696;2023-02-15T09:10:33;10.1;54.6
78461;SHT31;67755;51.986;5.696;2023-02-15T09:13:03;10.1;53.7
78461;SHT31;67755;51.986;5.696;2023-02-15T09:15:32;10.1;53.9
78461;SHT31;67755;51.986;5.696;2023-02-15T09:18:02;10.0;54.8
78461;SHT31;67755;51.986;5.696;2023-02-15T09:20:35;9.9;55.7
78461;SHT31;67755;51.986;5.696;2023-02-15T09:25:09;10.0;54.7
78461;SHT31;67755;51.986;5.696;2023-02-15T09:27:40;9.9;55.1
78461;SHT31;67755;51.986;5.696;2023-02-15T09:30:11;9.8;55.5
78461;SHT31;67755;51.986;5.696;2023-02-15T09:32:41;9.8;56.1
78461;SHT31;67755;51.986;5.696;2023-02-15T09:35:12;9.8;55.8
78461;SHT31;67755;51.986;5.696;2023-02-15T09:37:41;9.8;56.4
78461;SHT31;67755;51.986;5.696;2023-02-15T09:40:16;9.7;56.4
78461;SHT31;67755;51.986;5.696;2023-02-15T09:43:30;9.7;56.5
78461;SHT31;67755;51.986;5.696;2023-02-15T09:46:37;9.7;56.4
78461;SHT31;67755;51.986;5.696;2023-02-15T09:49:20;9.7;57.0
78461;SHT31;67755;51.986;5.696;2023-02-15T09:52:08;9.6;57.1
78461;SHT31;67755;51.986;5.696;2023-02-15T09:54:57;9.6;58.1
78461;SHT31;67755;51.986;5.696;2023-02-15T09:57:39;9.6;58.6
78461;SHT31;67755;51.986;5.696;2023-02-15T10:00:21;9.6;58.8
78461;SHT31;67755;51.986;5.696;2023-02-15T10:03:10;9.6;58.0
78461;SHT31;67755;51.986;5.696;2023-02-15T10:05:55;9.6;58.0
78461;SHT31;67755;51.986;5.696;2023-02-15T10:08:48;9.6;58.2
78461;SHT31;67755;51.986;5.696;2023-02-15T10:11:31;9.6;57.6
78461;SHT31;67755;51.986;5.696;2023-02-15T10:14:34;9.6;58.6
78461;SHT31;67755;51.986;5.696;2023-02-15T10:17:15;9.7;57.8
78461;SHT31;67755;51.986;5.696;2023-02-15T10:19:59;9.7;58.1
78461;SHT31;67755;51.986;5.696;2023-02-15T10:22:50;9.7;57.8
78461;SHT31;67755;51.986;5.696;2023-02-15T10:25:30;9.7;57.2
78461;SHT31;67755;51.986;5.696;2023-02-15T10:28:05;9.8;56.7
78461;SHT31;67755;51.986;5.696;2023-02-15T10:30:44;9.8;56.8
78461;SHT31;67755;51.986;5.696;2023-02-15T10:33:30;9.8;56.7
78461;SHT31;67755;51.986;5.696;2023-02-15T10:36:16;9.9;58.3
78461;SHT31;67755;51.986;5.696;2023-02-15T10:38:56;9.9;56.5
78461;SHT31;67755;51.986;5.696;2023-02-15T10:41:37;10.0;56.7
78461;SHT31;67755;51.986;5.696;2023-02-15T10:44:25;10.0;56.6
78461;SHT31;67755;51.986;5.696;2023-02-15T10:47:16;10.0;56.4
78461;SHT31;67755;51.986;5.696;2023-02-15T10:50:05;10.1;56.5
78461;SHT31;67755;51.986;5.696;2023-02-15T10:52:48;10.1;57.6
78461;SHT31;67755;51.986;5.696;2023-02-15T10:55:34;10.2;57.0
78461;SHT31;67755;51.986;5.696;2023-02-15T10:58:15;10.3;56.1
78461;SHT31;67755;51.986;5.696;2023-02-15T11:00:51;10.3;56.5
78461;SHT31;67755;51.986;5.696;2023-02-15T11:03:53;10.4;56.7
78461;SHT31;67755;51.986;5.696;2023-02-15T11:06:27;10.4;56.5
78461;SHT31;67755;51.986;5.696;2023-02-15T11:09:01;10.5;56.4
78461;SHT31;67755;51.986;5.696;2023-02-15T11:11:35;10.5;55.9
78461;SHT31;67755;51.986;5.696;2023-02-15T11:14:15;10.6;55.9
78461;SHT31;67755;51.986;5.696;2023-02-15T11:16:52;10.6;56.5
78461;SHT31;67755;51.986;5.696;2023-02-15T11:19:31;10.7;55.6
78461;SHT31;67755;51.986;5.696;2023-02-15T11:22:04;10.8;55.7
78461;SHT31;67755;51.986;5.696;2023-02-15T11:24:40;10.8;55.4
78461;SHT31;67755;51.986;5.696;2023-02-15T11:27:18;10.9;54.9
78461;SHT31;67755;51.986;5.696;2023-02-15T11:29:57;10.9;55.3
78461;SHT31;67755;51.986;5.696;2023-02-15T11:32:32;11.0;55.8
78461;SHT31;67755;51.986;5.696;2023-02-15T11:35:17;11.0;56.0
78461;SHT31;67755;51.986;5.696;2023-02-15T11:37:50;11.1;55.3
78461;SHT31;67755;51.986;5.696;2023-02-15T11:40:25;11.1;55.1
78461;SHT31;67755;51.986;5.696;2023-02-15T11:43:04;11.2;54.8
78461;SHT31;67755;51.986;5.696;2023-02-15T11:45:35;11.2;55.5
78461;SHT31;67755;51.986;5.696;2023-02-15T11:48:10;11.3;54.6
78461;SHT31;67755;51.986;5.696;2023-02-15T11:50:42;11.3;54.7
78461;SHT31;67755;51.986;5.696;2023-02-15T11:53:15;11.4;54.9
78461;SHT31;67755;51.986;5.696;2023-02-15T11:55:47;11.4;55.4
78461;SHT31;67755;51.986;5.696;2023-02-15T11:58:27;11.4;56.0
78461;SHT31;67755;51.986;5.696;2023-02-15T12:01:03;11.5;56.2
78461;SHT31;67755;51.986;5.696;2023-02-15T12:03:43;11.5;56.8
78461;SHT31;67755;51.986;5.696;2023-02-15T12:06:18;11.6;55.7
78461;SHT31;67755;51.986;5.696;2023-02-15T12:08:55;11.6;55.2
78461;SHT31;67755;51.986;5.696;2023-02-15T12:11:31;11.7;54.7
78461;SHT31;67755;51.986;5.696;2023-02-15T12:14:05;11.7;54.5
78461;SHT31;67755;51.986;5.696;2023-02-15T12:16:43;11.8;55.4
78461;SHT31;67755;51.986;5.696;2023-02-15T12:19:38;11.8;55.4
78461;SHT31;67755;51.986;5.696;2023-02-15T12:22:22;11.9;54.5
78461;SHT31;67755;51.986;5.696;2023-02-15T12:24:56;11.9;55.5
78461;SHT31;67755;51.986;5.696;2023-02-15T12:27:29;12.0;54.6
78461;SHT31;67755;51.986;5.696;2023-02-15T12:30:03;12.0;54.2
78461;SHT31;67755;51.986;5.696;2023-02-15T12:32:47;12.1;54.6
78461;SHT31;67755;51.986;5.696;2023-02-15T12:35:16;12.1;54.8
78461;SHT31;67755;51.986;5.696;2023-02-15T12:37:54;12.2;55.6
78461;SHT31;67755;51.986;5.696;2023-02-15T12:40:26;12.2;54.6
78461;SHT31;67755;51.986;5.696;2023-02-15T12:42:57;12.3;54.9
78461;SHT31;67755;51.986;5.696;2023-02-15T12:45:28;12.3;54.0
78461;SHT31;67755;51.986;5.696;2023-02-15T12:48:18;12.4;54.2
78461;SHT31;67755;51.986;5.696;2023-02-15T12:50:49;12.4;54.1
78461;SHT31;67755;51.986;5.696;2023-02-15T12:53:32;12.5;53.7
78461;SHT31;67755;51.986;5.696;2023-02-15T12:56:04;12.5;53.7
78461;SHT31;67755;51.986;5.696;2023-02-15T12:58:35;12.6;52.9
78461;SHT31;67755;51.986;5.696;2023-02-15T13:01:11;12.6;53.4
78461;SHT31;67755;51.986;5.696;2023-02-15T13:04:00;12.6;53.7
78461;SHT31;67755;51.986;5.696;2023-02-15T13:06:33;12.7;53.6
78461;SHT31;67755;51.986;5.696;2023-02-15T13:09:15;12.7;54.2
78461;SHT31;67755;51.986;5.696;2023-02-15T13:11:46;12.8;53.7
78461;SHT31;67755;51.986;5.696;2023-02-15T13:14:19;12.8;53.8
78461;SHT31;67755;51.986;5.696;2023-02-15T13:16:52;12.9;54.1
78461;SHT31;67755;51.986;5.696;2023-02-15T13:19:31;12.9;52.6
78461;SHT31;67755;51.986;5.696;2023-02-15T13:22:06;12.9;52.7
78461;SHT31;67755;51.986;5.696;2023-02-15T13:24:40;13.0;52.0
78461;SHT31;67755;51.986;5.696;2023-02-15T13:27:15;13.0;52.3
78461;SHT31;67755;51.986;5.696;2023-02-15T13:29:49;13.0;52.9
78461;SHT31;67755;51.986;5.696;2023-02-15T13:32:28;13.1;52.3
78461;SHT31;67755;51.986;5.696;2023-02-15T13:35:01;13.1;51.8
78461;SHT31;67755;51.986;5.696;2023-02-15T13:38:05;13.1;52.0
78461;SHT31;67755;51.986;5.696;2023-02-15T13:40:45;13.2;53.2
78461;SHT31;67755;51.986;5.696;2023-02-15T13:43:28;13.2;52.4
78461;SHT31;67755;51.986;5.696;2023-02-15T13:46:18;13.3;52.0
78461;SHT31;67755;51.986;5.696;2023-02-15T13:49:02;13.3;51.6
78461;SHT31;67755;51.986;5.696;2023-02-15T13:51:45;13.4;52.8
78461;SHT31;67755;51.986;5.696;2023-02-15T13:54:36;13.4;53.4
78461;SHT31;67755;51.986;5.696;2023-02-15T14:01:58;13.5;50.8
78461;SHT31;67755;51.986;5.696;2023-02-15T14:04:50;13.6;51.0
78461;SHT31;67755;51.986;5.696;2023-02-15T14:07:33;13.6;51.5
78461;SHT31;67755;51.986;5.696;2023-02-15T14:10:46;13.6;51.0
78461;SHT31;67755;51.986;5.696;2023-02-15T14:13:45;13.7;51.0
78461;SHT31;67755;51.986;5.696;2023-02-15T14:16:23;13.7;51.5
78461;SHT31;67755;51.986;5.696;2023-02-15T14:19:02;13.7;51.2
78461;SHT31;67755;51.986;5.696;2023-02-15T14:21:41;13.7;51.4
78461;SHT31;67755;51.986;5.696;2023-02-15T14:24:27;13.8;53.0
78461;SHT31;67755;51.986;5.696;2023-02-15T14:27:03;13.8;53.3
78461;SHT31;67755;51.986;5.696;2023-02-15T14:29:50;13.8;51.4
78461;SHT31;67755;51.986;5.696;2023-02-15T14:32:26;13.8;52.1
78461;SHT31;67755;51.986;5.696;2023-02-15T14:34:59;13.8;51.4
78461;SHT31;67755;51.986;5.696;2023-02-15T14:37:39;13.9;51.5
78461;SHT31;67755;51.986;5.696;2023-02-15T14:40:19;13.9;51.4
78461;SHT31;67755;51.986;5.696;2023-02-15T14:43:19;13.9;51.9
78461;SHT31;67755;51.986;5.696;2023-02-15T14:45:53;13.9;51.1
78461;SHT31;67755;51.986;5.696;2023-02-15T14:48:28;14.0;51.8
78461;SHT31;67755;51.986;5.696;2023-02-15T14:50:59;14.0;50.7
78461;SHT31;67755;51.986;5.696;2023-02-15T14:53:36;14.0;50.6
78461;SHT31;67755;51.986;5.696;2023-02-15T14:56:17;14.0;51.4
78461;SHT31;67755;51.986;5.696;2023-02-15T14:58:58;14.0;52.1
78461;SHT31;67755;51.986;5.696;2023-02-15T15:01:31;14.0;51.5
78461;SHT31;67755;51.986;5.696;2023-02-15T15:04:04;14.0;50.4
78461;SHT31;67755;51.986;5.696;2023-02-15T15:06:38;14.0;51.2
78461;SHT31;67755;51.986;5.696;2023-02-15T15:09:20;14.0;50.8
78461;SHT31;67755;51.986;5.696;2023-02-15T15:11:52;14.0;52.2
78461;SHT31;67755;51.986;5.696;2023-02-15T15:15:47;14.0;52.1
78461;SHT31;67755;51.986;5.696;2023-02-15T15:18:42;14.0;51.3
78461;SHT31;67755;51.986;5.696;2023-02-15T15:21:10;14.0;52.5
78461;SHT31;67755;51.986;5.696;2023-02-15T15:23:45;14.0;52.7
78461;SHT31;67755;51.986;5.696;2023-02-15T15:26:24;14.0;53.1
78461;SHT31;67755;51.986;5.696;2023-02-15T15:28:55;14.0;52.8
78461;SHT31;67755;51.986;5.696;2023-02-15T15:31:35;13.9;52.8
78461;SHT31;67755;51.986;5.696;2023-02-15T15:34:22;13.9;52.6
78461;SHT31;67755;51.986;5.696;2023-02-15T15:37:28;13.9;53.3
78461;SHT31;67755;51.986;5.696;2023-02-15T15:41:32;13.9;52.8
78461;SHT31;67755;51.986;5.696;2023-02-15T15:44:47;13.8;53.4
78461;SHT31;67755;51.986;5.696;2023-02-15T15:47:29;13.8;53.4
78461;SHT31;67755;51.986;5.696;2023-02-15T15:50:10;13.8;53.1
78461;SHT31;67755;51.986;5.696;2023-02-15T15:52:44;13.7;52.7
78461;SHT31;67755;51.986;5.696;2023-02-15T15:55:18;13.7;53.2
78461;SHT31;67755;51.986;5.696;2023-02-15T15:57:51;13.7;53.0
78461;SHT31;67755;51.986;5.696;2023-02-15T16:00:59;13.7;52.7
78461;SHT31;67755;51.986;5.696;2023-02-15T16:03:31;13.7;52.6
78461;SHT31;67755;51.986;5.696;2023-02-15T16:06:00;13.7;53.3
78461;SHT31;67755;51.986;5.696;2023-02-15T16:08:33;13.6;53.5
78461;SHT31;67755;51.986;5.696;2023-02-15T16:11:12;13.6;53.4
78461;SHT31;67755;51.986;5.696;2023-02-15T16:13:44;13.6;54.0
78461;SHT31;67755;51.986;5.696;2023-02-15T16:16:22;13.5;53.7
78461;SHT31;67755;51.986;5.696;2023-02-15T16:18:52;13.5;54.2
78461;SHT31;67755;51.986;5.696;2023-02-15T16:21:26;13.5;54.1
78461;SHT31;67755;51.986;5.696;2023-02-15T16:24:10;13.4;54.3
78461;SHT31;67755;51.986;5.696;2023-02-15T16:27:03;13.4;54.1
78461;SHT31;67755;51.986;5.696;2023-02-15T16:29:35;13.3;53.8
78461;SHT31;67755;51.986;5.696;2023-02-15T16:32:15;13.3;54.1
78461;SHT31;67755;51.986;5.696;2023-02-15T16:34:54;13.2;53.9
78461;SHT31;67755;51.986;5.696;2023-02-15T16:37:26;13.2;53.5
78461;SHT31;67755;51.986;5.696;2023-02-15T16:39:56;13.1;53.7
78461;SHT31;67755;51.986;5.696;2023-02-15T16:42:26;13.1;53.7
78461;SHT31;67755;51.986;5.696;2023-02-15T16:45:05;13.1;54.2
78461;SHT31;67755;51.986;5.696;2023-02-15T16:47:39;13.0;53.2
78461;SHT31;67755;51.986;5.696;2023-02-15T16:50:19;13.0;53.4
78461;SHT31;67755;51.986;5.696;2023-02-15T16:52:49;12.9;53.6
78461;SHT31;67755;51.986;5.696;2023-02-15T16:55:23;12.9;52.9
78461;SHT31;67755;51.986;5.696;2023-02-15T16:57:57;12.9;53.3
78461;SHT31;67755;51.986;5.696;2023-02-15T17:00:33;12.8;53.4
78461;SHT31;67755;51.986;5.696;2023-02-15T17:03:06;12.8;53.5
78461;SHT31;67755;51.986;5.696;2023-02-15T17:05:41;12.8;54.1
78461;SHT31;67755;51.986;5.696;2023-02-15T17:08:17;12.8;53.8
78461;SHT31;67755;51.986;5.696;2023-02-15T17:11:05;12.7;53.7
78461;SHT31;67755;51.986;5.696;2023-02-15T17:16:33;12.6;53.8
78461;SHT31;67755;51.986;5.696;2023-02-15T17:19:13;12.6;53.6
78461;SHT31;67755;51.986;5.696;2023-02-15T17:21:48;12.6;53.5
78461;SHT31;67755;51.986;5.696;2023-02-15T17:24:24;12.5;53.5
78461;SHT31;67755;51.986;5.696;2023-02-15T17:26:58;12.5;53.7
78461;SHT31;67755;51.986;5.696;2023-02-15T17:29:33;12.4;53.8
78461;SHT31;67755;51.986;5.696;2023-02-15T17:32:05;12.4;53.8
78461;SHT31;67755;51.986;5.696;2023-02-15T17:34:48;12.4;53.7
78461;SHT31;67755;51.986;5.696;2023-02-15T17:38:05;12.3;53.3
78461;SHT31;67755;51.986;5.696;2023-02-15T17:40:36;12.3;53.6
78461;SHT31;67755;51.986;5.696;2023-02-15T17:43:08;12.2;53.5
78461;SHT31;67755;51.986;5.696;2023-02-15T17:45:42;12.2;53.6
78461;SHT31;67755;51.986;5.696;2023-02-15T17:48:23;12.2;53.7
78461;SHT31;67755;51.986;5.696;2023-02-15T17:50:58;12.1;54.0
78461;SHT31;67755;51.986;5.696;2023-02-15T17:53:29;12.1;53.8
78461;SHT31;67755;51.986;5.696;2023-02-15T17:55:59;12.1;54.1
78461;SHT31;67755;51.986;5.696;2023-02-15T17:58:34;12.0;54.1
78461;SHT31;67755;51.986;5.696;2023-02-15T18:01:06;12.0;54.2
78461;SHT31;67755;51.986;5.696;2023-02-15T18:03:55;12.0;54.0
78461;SHT31;67755;51.986;5.696;2023-02-15T18:06:43;11.9;53.9
78461;SHT31;67755;51.986;5.696;2023-02-15T18:09:29;11.9;54.0
78461;SHT31;67755;51.986;5.696;2023-02-15T18:12:19;11.9;54.2
78461;SHT31;67755;51.986;5.696;2023-02-15T18:14:50;11.8;54.3
78461;SHT31;67755;51.986;5.696;2023-02-15T18:17:25;11.8;54.2
78461;SHT31;67755;51.986;5.696;2023-02-15T18:19:55;11.8;54.6
78461;SHT31;67755;51.986;5.696;2023-02-15T18:22:27;11.8;54.7
78461;SHT31;67755;51.986;5.696;2023-02-15T18:24:59;11.7;55.1
78461;SHT31;67755;51.986;5.696;2023-02-15T18:27:28;11.7;54.5
78461;SHT31;67755;51.986;5.696;2023-02-15T18:29:57;11.7;54.5
78461;SHT31;67755;51.986;5.696;2023-02-15T18:32:32;11.7;54.5
78461;SHT31;67755;51.986;5.696;2023-02-15T18:35:04;11.7;54.4
78461;SHT31;67755;51.986;5.696;2023-02-15T18:37:33;11.7;54.5
78461;SHT31;67755;51.986;5.696;2023-02-15T18:40:12;11.7;54.5
78461;SHT31;67755;51.986;5.696;2023-02-15T18:42:43;11.7;54.3
78461;SHT31;67755;51.986;5.696;2023-02-15T18:45:18;11.6;54.6
78461;SHT31;67755;51.986;5.696;2023-02-15T18:47:50;11.6;54.7
78461;SHT31;67755;51.986;5.696;2023-02-15T18:50:23;11.6;54.7
78461;SHT31;67755;51.986;5.696;2023-02-15T18:52:54;11.6;54.8
78461;SHT31;67755;51.986;5.696;2023-02-15T18:55:26;11.6;54.9
78461;SHT31;67755;51.986;5.696;2023-02-15T18:57:57;11.6;54.8
78461;SHT31;67755;51.986;5.696;2023-02-15T19:00:29;11.5;54.7
78461;SHT31;67755;51.986;5.696;2023-02-15T19:03:00;11.5;54.5
78461;SHT31;67755;51.986;5.696;2023-02-15T19:05:31;11.5;54.6
78461;SHT31;67755;51.986;5.696;2023-02-15T19:08:02;11.5;54.5
78461;SHT31;67755;51.986;5.696;2023-02-15T19:10:32;11.5;54.6
78461;SHT31;67755;51.986;5.696;2023-02-15T19:13:02;11.5;54.4
78461;SHT31;67755;51.986;5.696;2023-02-15T19:15:31;11.5;54.4
78461;SHT31;67755;51.986;5.696;2023-02-15T19:18:01;11.5;54.6
78461;SHT31;67755;51.986;5.696;2023-02-15T19:20:35;11.4;54.5
78461;SHT31;67755;51.986;5.696;2023-02-15T19:23:13;11.4;54.6
78461;SHT31;67755;51.986;5.696;2023-02-15T19:25:47;11.4;54.6
78461;SHT31;67755;51.986;5.696;2023-02-15T19:28:21;11.4;54.8
78461;SHT31;67755;51.986;5.696;2023-02-15T19:30:53;11.4;54.8
78461;SHT31;67755;51.986;5.696;2023-02-15T19:33:23;11.4;54.9
78461;SHT31;67755;51.986;5.696;2023-02-15T19:35:55;11.4;54.9
78461;SHT31;67755;51.986;5.696;2023-02-15T19:38:29;11.4;55.0
78461;SHT31;67755;51.986;5.696;2023-02-15T19:41:05;11.3;54.9
78461;SHT31;67755;51.986;5.696;2023-02-15T19:43:35;11.3;54.9
78461;SHT31;67755;51.986;5.696;2023-02-15T19:46:05;11.3;55.0
78461;SHT31;67755;51.986;5.696;2023-02-15T19:48:34;11.3;55.0
78461;SHT31;67755;51.986;5.696;2023-02-15T19:51:04;11.3;55.1
78461;SHT31;67755;51.986;5.696;2023-02-15T19:53:34;11.3;55.2
78461;SHT31;67755;51.986;5.696;2023-02-15T19:56:04;11.3;55.1
78461;SHT31;67755;51.986;5.696;2023-02-15T19:58:33;11.3;55.3
78461;SHT31;67755;51.986;5.696;2023-02-15T20:01:03;11.2;55.4
78461;SHT31;67755;51.986;5.696;2023-02-15T20:03:32;11.2;55.3
78461;SHT31;67755;51.986;5.696;2023-02-15T20:06:02;11.2;55.3
78461;SHT31;67755;51.986;5.696;2023-02-15T20:08:32;11.2;55.5
78461;SHT31;67755;51.986;5.696;2023-02-15T20:11:02;11.2;55.2
78461;SHT31;67755;51.986;5.696;2023-02-15T20:13:31;11.2;55.3
78461;SHT31;67755;51.986;5.696;2023-02-15T20:16:03;11.1;55.1
78461;SHT31;67755;51.986;5.696;2023-02-15T20:18:34;11.1;55.5
78461;SHT31;67755;51.986;5.696;2023-02-15T20:21:11;11.1;55.6
78461;SHT31;67755;51.986;5.696;2023-02-15T20:23:43;11.1;55.7
78461;SHT31;67755;51.986;5.696;2023-02-15T20:26:15;11.1;55.8
78461;SHT31;67755;51.986;5.696;2023-02-15T20:28:45;11.1;55.6
78461;SHT31;67755;51.986;5.696;2023-02-15T20:31:17;11.1;55.6
78461;SHT31;67755;51.986;5.696;2023-02-15T20:33:48;11.1;56.1
78461;SHT31;67755;51.986;5.696;2023-02-15T20:36:19;11.1;55.5
78461;SHT31;67755;51.986;5.696;2023-02-15T20:38:50;11.1;55.5
78461;SHT31;67755;51.986;5.696;2023-02-15T20:41:20;11.1;55.4
78461;SHT31;67755;51.986;5.696;2023-02-15T20:45:19;11.1;55.5
78461;SHT31;67755;51.986;5.696;2023-02-15T20:47:49;11.1;55.5
78461;SHT31;67755;51.986;5.696;2023-02-15T20:50:22;11.1;55.5
78461;SHT31;67755;51.986;5.696;2023-02-15T20:52:53;11.1;55.5
78461;SHT31;67755;51.986;5.696;2023-02-15T20:55:26;11.1;55.3
78461;SHT31;67755;51.986;5.696;2023-02-15T20:57:57;11.0;55.6
78461;SHT31;67755;51.986;5.696;2023-02-15T21:00:30;11.0;56.1
78461;SHT31;67755;51.986;5.696;2023-02-15T21:03:00;11.0;55.7
78461;SHT31;67755;51.986;5.696;2023-02-15T21:05:31;11.0;55.7
78461;SHT31;67755;51.986;5.696;2023-02-15T21:08:01;11.0;55.7
78461;SHT31;67755;51.986;5.696;2023-02-15T21:10:33;11.0;55.8
78461;SHT31;67755;51.986;5.696;2023-02-15T21:13:03;11.0;55.9
78461;SHT31;67755;51.986;5.696;2023-02-15T21:15:37;10.9;56.0
78461;SHT31;67755;51.986;5.696;2023-02-15T21:18:17;10.9;56.0
78461;SHT31;67755;51.986;5.696;2023-02-15T21:20:49;10.9;56.6
78461;SHT31;67755;51.986;5.696;2023-02-15T21:23:23;10.9;56.1
78461;SHT31;67755;51.986;5.696;2023-02-15T21:25:55;10.9;56.0
78461;SHT31;67755;51.986;5.696;2023-02-15T21:28:26;10.9;56.2
78461;SHT31;67755;51.986;5.696;2023-02-15T21:30:57;10.9;56.2
78461;SHT31;67755;51.986;5.696;2023-02-15T21:33:26;10.9;55.9
78461;SHT31;67755;51.986;5.696;2023-02-15T21:35:56;10.9;55.9
78461;SHT31;67755;51.986;5.696;2023-02-15T21:38:28;10.9;56.1
78461;SHT31;67755;51.986;5.696;2023-02-15T21:40:58;10.9;55.8
78461;SHT31;67755;51.986;5.696;2023-02-15T21:43:33;10.9;55.8
78461;SHT31;67755;51.986;5.696;2023-02-15T21:47:31;10.8;55.8
78461;SHT31;67755;51.986;5.696;2023-02-15T21:50:19;10.8;55.9
78461;SHT31;67755;51.986;5.696;2023-02-15T21:53:09;10.8;56.0
78461;SHT31;67755;51.986;5.696;2023-02-15T21:55:40;10.8;56.0
78461;SHT31;67755;51.986;5.696;2023-02-15T21:58:16;10.7;56.0
78461;SHT31;67755;51.986;5.696;2023-02-15T22:00:48;10.7;56.1
78461;SHT31;67755;51.986;5.696;2023-02-15T22:03:21;10.7;56.1
78461;SHT31;67755;51.986;5.696;2023-02-15T22:05:51;10.7;56.2
78461;SHT31;67755;51.986;5.696;2023-02-15T22:08:23;10.6;56.4
78461;SHT31;67755;51.986;5.696;2023-02-15T22:10:55;10.6;56.4
78461;SHT31;67755;51.986;5.696;2023-02-15T22:13:28;10.6;56.4
78461;SHT31;67755;51.986;5.696;2023-02-15T22:15:58;10.6;56.4
78461;SHT31;67755;51.986;5.696;2023-02-15T22:18:30;10.6;56.3
78461;SHT31;67755;51.986;5.696;2023-02-15T22:21:00;10.5;56.5
78461;SHT31;67755;51.986;5.696;2023-02-15T22:23:30;10.5;56.4
78461;SHT31;67755;51.986;5.696;2023-02-15T22:26:02;10.5;56.7
78461;SHT31;67755;51.986;5.696;2023-02-15T22:28:37;10.5;56.9
78461;SHT31;67755;51.986;5.696;2023-02-15T22:31:12;10.5;56.8
78461;SHT31;67755;51.986;5.696;2023-02-15T22:33:42;10.4;56.8
78461;SHT31;67755;51.986;5.696;2023-02-15T22:36:25;10.4;57.0
78461;SHT31;67755;51.986;5.696;2023-02-15T22:38:56;10.4;57.3
78461;SHT31;67755;51.986;5.696;2023-02-15T22:41:28;10.4;57.0
78461;SHT31;67755;51.986;5.696;2023-02-15T22:43:58;10.4;57.2
78461;SHT31;67755;51.986;5.696;2023-02-15T22:46:28;10.3;57.2
78461;SHT31;67755;51.986;5.696;2023-02-15T22:48:57;10.3;57.2
78461;SHT31;67755;51.986;5.696;2023-02-15T22:51:30;10.3;57.4
78461;SHT31;67755;51.986;5.696;2023-02-15T22:53:59;10.3;57.3
78461;SHT31;67755;51.986;5.696;2023-02-15T22:56:34;10.3;57.4
78461;SHT31;67755;51.986;5.696;2023-02-15T22:59:09;10.3;57.4
78461;SHT31;67755;51.986;5.696;2023-02-15T23:01:42;10.3;57.5
78461;SHT31;67755;51.986;5.696;2023-02-15T23:04:15;10.3;57.5
78461;SHT31;67755;51.986;5.696;2023-02-15T23:06:45;10.3;57.5
78461;SHT31;67755;51.986;5.696;2023-02-15T23:09:15;10.2;57.6
78461;SHT31;67755;51.986;5.696;2023-02-15T23:11:45;10.2;57.6
78461;SHT31;67755;51.986;5.696;2023-02-15T23:14:23;10.2;57.6
78461;SHT31;67755;51.986;5.696;2023-02-15T23:16:58;10.2;57.7
78461;SHT31;67755;51.986;5.696;2023-02-15T23:19:30;10.2;57.6
78461;SHT31;67755;51.986;5.696;2023-02-15T23:21:59;10.2;57.5
78461;SHT31;67755;51.986;5.696;2023-02-15T23:24:30;10.2;57.6
78461;SHT31;67755;51.986;5.696;2023-02-15T23:27:02;10.2;57.7
78461;SHT31;67755;51.986;5.696;2023-02-15T23:30:25;10.2;57.7
78461;SHT31;67755;51.986;5.696;2023-02-15T23:32:55;10.1;58.0
78461;SHT31;67755;51.986;5.696;2023-02-15T23:35:25;10.1;57.9
78461;SHT31;67755;51.986;5.696;2023-02-15T23:37:57;10.1;57.9
78461;SHT31;67755;51.986;5.696;2023-02-15T23:40:26;10.1;58.0
78461;SHT31;67755;51.986;5.696;2023-02-15T23:43:20;10.1;57.9
78461;SHT31;67755;51.986;5.696;2023-02-15T23:45:50;10.1;58.0
78461;SHT31;67755;51.986;5.696;2023-02-15T23:48:28;10.1;58.0
78461;SHT31;67755;51.986;5.696;2023-02-15T23:50:59;10.1;58.2
78461;SHT31;67755;51.986;5.696;2023-02-15T23:53:31;10.0;58.1
78461;SHT31;67755;51.986;5.696;2023-02-15T23:56:01;10.0;58.3
78461;SHT31;67755;51.986;5.696;2023-02-15T23:58:37;10.0;58.2
